sensor_id;sensor_type;location;lat;lon;timestamp;P1;durP1;ratioP1;P2;durP2;ratioP2
43835;SDS011;39345;43.964;25.340;2023-04-25T00:01:41;8.23;;;5.82;;
43835;SDS011;39345;43.964;25.340;2023-04-25T00:04:09;8.82;;;5.85;;
43835;SDS011;39345;43.964;25.340;2023-04-25T00:06:38;6.90;;;5.70;;
43835;SDS011;39345;43.964;25.340;2023-04-25T00:09:06;9.23;;;5.88;;
43835;SDS011;39345;43.964;25.340;2023-04-25T00:11:35;8.10;;;5.57;;
43835;SDS011;39345;43.964;25.340;2023-04-25T00:14:03;6.65;;;5.20;;
43835;SDS011;39345;43.964;25.340;2023-04-25T00:16:31;7.57;;;5.50;;
43835;SDS011;39345;43.964;25.340;2023-04-25T00:19:01;8.32;;;5.68;;
43835;SDS011;39345;43.964;25.340;2023-04-25T00:21:29;6.10;;;5.28;;
43835;SDS011;39345;43.964;25.340;2023-04-25T00:23:58;6.60;;;5.28;;
43835;SDS011;39345;43.964;25.340;2023-04-25T00:26:26;6.63;;;5.28;;
43835;SDS011;39345;43.964;25.340;2023-04-25T00:28:54;7.40;;;5.95;;
43835;SDS011;39345;43.964;25.340;2023-04-25T00:31:22;6.97;;;5.70;;
43835;SDS011;39345;43.964;25.340;2023-04-25T00:33:49;8.60;;;6.47;;
43835;SDS011;39345;43.964;25.340;2023-04-25T00:36:17;7.28;;;5.80;;
43835;SDS011;39345;43.964;25.340;2023-04-25T00:38:45;7.28;;;5.70;;
43835;SDS011;39345;43.964;25.340;2023-04-25T00:41:13;9.50;;;6.40;;
43835;SDS011;39345;43.964;25.340;2023-04-25T00:43:40;6.70;;;6.00;;
43835;SDS011;39345;43.964;25.340;2023-04-25T00:46:08;8.07;;;5.88;;
43835;SDS011;39345;43.964;25.340;2023-04-25T00:48:36;8.27;;;6.00;;
43835;SDS011;39345;43.964;25.340;2023-04-25T00:51:03;7.00;;;5.85;;
43835;SDS011;39345;43.964;25.340;2023-04-25T00:53:31;7.05;;;5.63;;
43835;SDS011;39345;43.964;25.340;2023-04-25T00:55:58;8.38;;;6.75;;
43835;SDS011;39345;43.964;25.340;2023-04-25T00:58:26;8.63;;;5.88;;
43835;SDS011;39345;43.964;25.340;2023-04-25T01:00:54;6.25;;;5.65;;
43835;SDS011;39345;43.964;25.340;2023-04-25T01:03:23;7.53;;;5.90;;
43835;SDS011;39345;43.964;25.340;2023-04-25T01:05:51;6.75;;;6.05;;
43835;SDS011;39345;43.964;25.340;2023-04-25T01:08:18;8.85;;;6.13;;
43835;SDS011;39345;43.964;25.340;2023-04-25T01:10:48;7.70;;;6.28;;
43835;SDS011;39345;43.964;25.340;2023-04-25T01:13:15;7.65;;;6.28;;
43835;SDS011;39345;43.964;25.340;2023-04-25T01:15:43;7.13;;;6.40;;
43835;SDS011;39345;43.964;25.340;2023-04-25T01:18:10;7.93;;;6.38;;
43835;SDS011;39345;43.964;25.340;2023-04-25T01:20:39;10.30;;;7.10;;
43835;SDS011;39345;43.964;25.340;2023-04-25T01:23:08;8.20;;;6.57;;
43835;SDS011;39345;43.964;25.340;2023-04-25T01:25:36;7.47;;;6.68;;
43835;SDS011;39345;43.964;25.340;2023-04-25T01:28:04;8.63;;;7.18;;
43835;SDS011;39345;43.964;25.340;2023-04-25T01:30:31;8.45;;;7.43;;
43835;SDS011;39345;43.964;25.340;2023-04-25T01:32:59;11.23;;;7.10;;
43835;SDS011;39345;43.964;25.340;2023-04-25T01:35:27;9.02;;;7.63;;
43835;SDS011;39345;43.964;25.340;2023-04-25T01:37:55;9.00;;;6.85;;
43835;SDS011;39345;43.964;25.340;2023-04-25T01:40:22;9.20;;;7.38;;
43835;SDS011;39345;43.964;25.340;2023-04-25T01:42:51;10.48;;;7.90;;
43835;SDS011;39345;43.964;25.340;2023-04-25T01:45:19;9.00;;;7.53;;
43835;SDS011;39345;43.964;25.340;2023-04-25T01:47:47;9.52;;;7.30;;
43835;SDS011;39345;43.964;25.340;2023-04-25T01:50:17;8.50;;;7.07;;
43835;SDS011;39345;43.964;25.340;2023-04-25T01:52:46;13.40;;;7.60;;
43835;SDS011;39345;43.964;25.340;2023-04-25T01:55:14;7.80;;;6.72;;
43835;SDS011;39345;43.964;25.340;2023-04-25T01:57:55;9.27;;;6.85;;
43835;SDS011;39345;43.964;25.340;2023-04-25T02:00:34;8.77;;;6.43;;
43835;SDS011;39345;43.964;25.340;2023-04-25T02:03:04;10.45;;;6.43;;
43835;SDS011;39345;43.964;25.340;2023-04-25T02:05:37;6.95;;;6.25;;
43835;SDS011;39345;43.964;25.340;2023-04-25T02:08:07;9.68;;;6.07;;
43835;SDS011;39345;43.964;25.340;2023-04-25T02:10:35;8.75;;;6.05;;
43835;SDS011;39345;43.964;25.340;2023-04-25T02:13:12;6.53;;;5.40;;
43835;SDS011;39345;43.964;25.340;2023-04-25T02:15:49;7.28;;;6.20;;
43835;SDS011;39345;43.964;25.340;2023-04-25T02:18:18;7.20;;;5.75;;
43835;SDS011;39345;43.964;25.340;2023-04-25T02:20:47;6.70;;;5.45;;
43835;SDS011;39345;43.964;25.340;2023-04-25T02:23:15;6.85;;;5.72;;
43835;SDS011;39345;43.964;25.340;2023-04-25T02:25:42;7.03;;;5.30;;
43835;SDS011;39345;43.964;25.340;2023-04-25T02:28:10;7.65;;;5.47;;
43835;SDS011;39345;43.964;25.340;2023-04-25T02:30:38;6.90;;;5.80;;
43835;SDS011;39345;43.964;25.340;2023-04-25T02:33:05;8.45;;;5.82;;
43835;SDS011;39345;43.964;25.340;2023-04-25T02:35:35;7.03;;;5.90;;
43835;SDS011;39345;43.964;25.340;2023-04-25T02:38:02;8.10;;;5.85;;
43835;SDS011;39345;43.964;25.340;2023-04-25T02:40:32;7.18;;;5.72;;
43835;SDS011;39345;43.964;25.340;2023-04-25T02:42:59;6.90;;;5.82;;
43835;SDS011;39345;43.964;25.340;2023-04-25T02:45:27;8.95;;;6.35;;
43835;SDS011;39345;43.964;25.340;2023-04-25T02:47:55;7.68;;;6.50;;
43835;SDS011;39345;43.964;25.340;2023-04-25T02:50:22;8.27;;;6.07;;
43835;SDS011;39345;43.964;25.340;2023-04-25T02:52:50;6.68;;;5.65;;
43835;SDS011;39345;43.964;25.340;2023-04-25T02:55:23;7.78;;;6.60;;
43835;SDS011;39345;43.964;25.340;2023-04-25T02:57:54;7.57;;;6.30;;
43835;SDS011;39345;43.964;25.340;2023-04-25T03:00:34;8.10;;;6.40;;
43835;SDS011;39345;43.964;25.340;2023-04-25T03:03:02;8.95;;;6.15;;
43835;SDS011;39345;43.964;25.340;2023-04-25T03:05:30;7.50;;;6.05;;
43835;SDS011;39345;43.964;25.340;2023-04-25T03:07:58;6.72;;;5.97;;
43835;SDS011;39345;43.964;25.340;2023-04-25T03:10:26;6.88;;;5.18;;
43835;SDS011;39345;43.964;25.340;2023-04-25T03:12:57;7.18;;;5.47;;
43835;SDS011;39345;43.964;25.340;2023-04-25T03:15:25;6.50;;;5.35;;
43835;SDS011;39345;43.964;25.340;2023-04-25T03:17:52;6.80;;;5.57;;
43835;SDS011;39345;43.964;25.340;2023-04-25T03:20:22;7.15;;;6.45;;
43835;SDS011;39345;43.964;25.340;2023-04-25T03:22:50;7.70;;;6.85;;
43835;SDS011;39345;43.964;25.340;2023-04-25T03:25:17;7.65;;;6.65;;
43835;SDS011;39345;43.964;25.340;2023-04-25T03:27:45;9.02;;;7.28;;
43835;SDS011;39345;43.964;25.340;2023-04-25T03:30:13;9.35;;;7.07;;
43835;SDS011;39345;43.964;25.340;2023-04-25T03:32:42;7.70;;;6.60;;
43835;SDS011;39345;43.964;25.340;2023-04-25T03:35:13;8.82;;;7.07;;
43835;SDS011;39345;43.964;25.340;2023-04-25T03:37:41;10.40;;;7.38;;
43835;SDS011;39345;43.964;25.340;2023-04-25T03:40:17;9.25;;;7.05;;
43835;SDS011;39345;43.964;25.340;2023-04-25T03:43:07;10.45;;;8.07;;
43835;SDS011;39345;43.964;25.340;2023-04-25T03:45:35;12.02;;;8.75;;
43835;SDS011;39345;43.964;25.340;2023-04-25T03:48:03;10.45;;;9.15;;
43835;SDS011;39345;43.964;25.340;2023-04-25T03:50:31;12.70;;;8.98;;
43835;SDS011;39345;43.964;25.340;2023-04-25T03:52:59;10.88;;;8.93;;
43835;SDS011;39345;43.964;25.340;2023-04-25T03:55:31;12.95;;;9.27;;
43835;SDS011;39345;43.964;25.340;2023-04-25T03:57:59;16.42;;;10.18;;
43835;SDS011;39345;43.964;25.340;2023-04-25T04:00:26;10.88;;;9.38;;
43835;SDS011;39345;43.964;25.340;2023-04-25T04:02:54;11.10;;;9.43;;
43835;SDS011;39345;43.964;25.340;2023-04-25T04:05:22;13.68;;;9.20;;
43835;SDS011;39345;43.964;25.340;2023-04-25T04:07:54;12.20;;;9.43;;
43835;SDS011;39345;43.964;25.340;2023-04-25T04:10:22;11.60;;;9.55;;
43835;SDS011;39345;43.964;25.340;2023-04-25T04:12:49;11.55;;;9.75;;
43835;SDS011;39345;43.964;25.340;2023-04-25T04:15:17;12.43;;;10.27;;
43835;SDS011;39345;43.964;25.340;2023-04-25T04:17:45;13.35;;;10.95;;
43835;SDS011;39345;43.964;25.340;2023-04-25T04:20:13;15.10;;;12.25;;
43835;SDS011;39345;43.964;25.340;2023-04-25T04:22:41;16.15;;;11.77;;
43835;SDS011;39345;43.964;25.340;2023-04-25T04:25:11;14.70;;;11.80;;
43835;SDS011;39345;43.964;25.340;2023-04-25T04:28:17;13.45;;;11.63;;
43835;SDS011;39345;43.964;25.340;2023-04-25T04:30:55;13.68;;;11.35;;
43835;SDS011;39345;43.964;25.340;2023-04-25T04:33:25;14.57;;;12.10;;
43835;SDS011;39345;43.964;25.340;2023-04-25T04:35:58;14.52;;;11.57;;
43835;SDS011;39345;43.964;25.340;2023-04-25T04:38:27;15.77;;;13.02;;
43835;SDS011;39345;43.964;25.340;2023-04-25T04:40:59;15.70;;;12.43;;
43835;SDS011;39345;43.964;25.340;2023-04-25T04:43:53;14.80;;;12.50;;
43835;SDS011;39345;43.964;25.340;2023-04-25T04:46:44;15.55;;;12.38;;
43835;SDS011;39345;43.964;25.340;2023-04-25T04:49:25;16.20;;;12.50;;
43835;SDS011;39345;43.964;25.340;2023-04-25T04:52:02;16.73;;;11.77;;
43835;SDS011;39345;43.964;25.340;2023-04-25T04:54:53;17.30;;;12.20;;
43835;SDS011;39345;43.964;25.340;2023-04-25T04:57:39;15.30;;;12.27;;
43835;SDS011;39345;43.964;25.340;2023-04-25T05:00:25;17.23;;;12.77;;
43835;SDS011;39345;43.964;25.340;2023-04-25T05:03:03;17.60;;;12.43;;
43835;SDS011;39345;43.964;25.340;2023-04-25T05:06:10;13.18;;;11.25;;
43835;SDS011;39345;43.964;25.340;2023-04-25T05:09:07;15.10;;;11.68;;
43835;SDS011;39345;43.964;25.340;2023-04-25T05:11:53;17.30;;;12.05;;
43835;SDS011;39345;43.964;25.340;2023-04-25T05:14:33;14.30;;;11.75;;
43835;SDS011;39345;43.964;25.340;2023-04-25T05:17:11;18.25;;;11.90;;
43835;SDS011;39345;43.964;25.340;2023-04-25T05:19:57;17.17;;;11.85;;
43835;SDS011;39345;43.964;25.340;2023-04-25T05:22:49;15.27;;;11.50;;
43835;SDS011;39345;43.964;25.340;2023-04-25T05:25:21;16.77;;;11.60;;
43835;SDS011;39345;43.964;25.340;2023-04-25T05:27:49;15.05;;;12.23;;
43835;SDS011;39345;43.964;25.340;2023-04-25T05:30:37;15.90;;;11.95;;
43835;SDS011;39345;43.964;25.340;2023-04-25T05:33:13;16.55;;;11.05;;
43835;SDS011;39345;43.964;25.340;2023-04-25T05:35:42;12.32;;;10.35;;
43835;SDS011;39345;43.964;25.340;2023-04-25T05:38:10;15.45;;;10.52;;
43835;SDS011;39345;43.964;25.340;2023-04-25T05:41:16;14.27;;;10.73;;
43835;SDS011;39345;43.964;25.340;2023-04-25T05:43:49;14.00;;;10.15;;
43835;SDS011;39345;43.964;25.340;2023-04-25T05:46:34;17.58;;;9.88;;
43835;SDS011;39345;43.964;25.340;2023-04-25T05:49:25;17.85;;;9.50;;
43835;SDS011;39345;43.964;25.340;2023-04-25T05:52:00;12.60;;;9.45;;
43835;SDS011;39345;43.964;25.340;2023-04-25T05:54:43;13.40;;;8.90;;
43835;SDS011;39345;43.964;25.340;2023-04-25T05:57:23;11.35;;;8.50;;
43835;SDS011;39345;43.964;25.340;2023-04-25T05:59:53;14.32;;;9.38;;
43835;SDS011;39345;43.964;25.340;2023-04-25T06:02:22;12.45;;;9.80;;
43835;SDS011;39345;43.964;25.340;2023-04-25T06:04:51;14.90;;;10.93;;
43835;SDS011;39345;43.964;25.340;2023-04-25T06:07:21;12.18;;;10.00;;
43835;SDS011;39345;43.964;25.340;2023-04-25T06:09:49;12.73;;;10.32;;
43835;SDS011;39345;43.964;25.340;2023-04-25T06:12:17;12.55;;;8.63;;
43835;SDS011;39345;43.964;25.340;2023-04-25T06:14:46;12.95;;;8.45;;
43835;SDS011;39345;43.964;25.340;2023-04-25T06:17:14;11.90;;;8.70;;
43835;SDS011;39345;43.964;25.340;2023-04-25T06:19:41;10.93;;;9.00;;
43835;SDS011;39345;43.964;25.340;2023-04-25T06:22:09;11.15;;;8.82;;
43835;SDS011;39345;43.964;25.340;2023-04-25T06:24:39;12.13;;;8.57;;
43835;SDS011;39345;43.964;25.340;2023-04-25T06:27:07;14.00;;;9.13;;
43835;SDS011;39345;43.964;25.340;2023-04-25T06:29:34;11.50;;;9.60;;
43835;SDS011;39345;43.964;25.340;2023-04-25T06:32:02;11.70;;;9.32;;
43835;SDS011;39345;43.964;25.340;2023-04-25T06:34:30;10.40;;;8.77;;
43835;SDS011;39345;43.964;25.340;2023-04-25T06:36:58;9.25;;;8.23;;
43835;SDS011;39345;43.964;25.340;2023-04-25T06:39:25;9.15;;;7.50;;
43835;SDS011;39345;43.964;25.340;2023-04-25T06:41:54;9.73;;;8.02;;
43835;SDS011;39345;43.964;25.340;2023-04-25T06:44:46;8.90;;;8.00;;
43835;SDS011;39345;43.964;25.340;2023-04-25T06:47:14;10.13;;;8.48;;
43835;SDS011;39345;43.964;25.340;2023-04-25T06:49:42;10.15;;;7.40;;
43835;SDS011;39345;43.964;25.340;2023-04-25T06:52:10;12.75;;;7.72;;
43835;SDS011;39345;43.964;25.340;2023-04-25T06:54:38;11.13;;;8.60;;
43835;SDS011;39345;43.964;25.340;2023-04-25T06:57:30;9.88;;;7.57;;
43835;SDS011;39345;43.964;25.340;2023-04-25T07:00:10;12.65;;;8.18;;
43835;SDS011;39345;43.964;25.340;2023-04-25T07:02:38;11.43;;;8.38;;
43835;SDS011;39345;43.964;25.340;2023-04-25T07:05:07;11.30;;;8.95;;
43835;SDS011;39345;43.964;25.340;2023-04-25T07:07:34;14.27;;;9.15;;
43835;SDS011;39345;43.964;25.340;2023-04-25T07:10:02;13.18;;;8.88;;
43835;SDS011;39345;43.964;25.340;2023-04-25T07:12:30;10.52;;;8.93;;
43835;SDS011;39345;43.964;25.340;2023-04-25T07:14:58;12.32;;;9.50;;
43835;SDS011;39345;43.964;25.340;2023-04-25T07:17:25;15.65;;;10.77;;
43835;SDS011;39345;43.964;25.340;2023-04-25T07:19:53;12.88;;;11.00;;
43835;SDS011;39345;43.964;25.340;2023-04-25T07:22:20;13.23;;;10.57;;
43835;SDS011;39345;43.964;25.340;2023-04-25T07:24:48;11.60;;;10.40;;
43835;SDS011;39345;43.964;25.340;2023-04-25T07:27:19;10.88;;;8.95;;
43835;SDS011;39345;43.964;25.340;2023-04-25T07:29:55;12.93;;;8.70;;
43835;SDS011;39345;43.964;25.340;2023-04-25T07:32:23;14.10;;;9.32;;
43835;SDS011;39345;43.964;25.340;2023-04-25T07:34:51;11.85;;;9.32;;
43835;SDS011;39345;43.964;25.340;2023-04-25T07:37:18;10.57;;;7.75;;
43835;SDS011;39345;43.964;25.340;2023-04-25T07:39:59;13.05;;;8.65;;
43835;SDS011;39345;43.964;25.340;2023-04-25T07:42:27;11.88;;;8.45;;
43835;SDS011;39345;43.964;25.340;2023-04-25T07:44:55;11.15;;;8.35;;
43835;SDS011;39345;43.964;25.340;2023-04-25T07:47:23;10.13;;;8.00;;
43835;SDS011;39345;43.964;25.340;2023-04-25T07:49:51;10.85;;;8.02;;
43835;SDS011;39345;43.964;25.340;2023-04-25T07:52:20;10.30;;;7.15;;
43835;SDS011;39345;43.964;25.340;2023-04-25T07:54:54;11.27;;;9.70;;
43835;SDS011;39345;43.964;25.340;2023-04-25T07:57:30;10.43;;;7.85;;
43835;SDS011;39345;43.964;25.340;2023-04-25T07:59:58;9.65;;;6.03;;
43835;SDS011;39345;43.964;25.340;2023-04-25T08:02:28;9.52;;;5.35;;
43835;SDS011;39345;43.964;25.340;2023-04-25T08:04:55;9.93;;;7.13;;
43835;SDS011;39345;43.964;25.340;2023-04-25T08:07:24;7.05;;;5.03;;
43835;SDS011;39345;43.964;25.340;2023-04-25T08:09:54;7.10;;;5.40;;
43835;SDS011;39345;43.964;25.340;2023-04-25T08:12:26;6.25;;;4.10;;
43835;SDS011;39345;43.964;25.340;2023-04-25T08:14:55;7.57;;;4.80;;
43835;SDS011;39345;43.964;25.340;2023-04-25T08:17:25;4.93;;;4.05;;
43835;SDS011;39345;43.964;25.340;2023-04-25T08:19:53;7.57;;;4.03;;
43835;SDS011;39345;43.964;25.340;2023-04-25T08:22:29;5.80;;;3.72;;
43835;SDS011;39345;43.964;25.340;2023-04-25T08:25:15;4.30;;;3.85;;
43835;SDS011;39345;43.964;25.340;2023-04-25T08:27:43;4.25;;;3.30;;
43835;SDS011;39345;43.964;25.340;2023-04-25T08:30:11;4.00;;;3.25;;
43835;SDS011;39345;43.964;25.340;2023-04-25T08:32:40;4.25;;;3.00;;
43835;SDS011;39345;43.964;25.340;2023-04-25T08:35:45;4.72;;;3.10;;
43835;SDS011;39345;43.964;25.340;2023-04-25T08:38:14;5.10;;;3.22;;
43835;SDS011;39345;43.964;25.340;2023-04-25T08:40:42;4.60;;;3.40;;
43835;SDS011;39345;43.964;25.340;2023-04-25T08:43:17;4.63;;;3.20;;
43835;SDS011;39345;43.964;25.340;2023-04-25T08:45:45;3.10;;;2.80;;
43835;SDS011;39345;43.964;25.340;2023-04-25T08:48:23;4.80;;;2.80;;
43835;SDS011;39345;43.964;25.340;2023-04-25T08:50:52;3.40;;;2.88;;
43835;SDS011;39345;43.964;25.340;2023-04-25T08:53:27;4.35;;;2.83;;
43835;SDS011;39345;43.964;25.340;2023-04-25T08:55:58;3.20;;;2.60;;
43835;SDS011;39345;43.964;25.340;2023-04-25T08:58:28;4.72;;;2.53;;
43835;SDS011;39345;43.964;25.340;2023-04-25T09:00:56;3.70;;;2.63;;
43835;SDS011;39345;43.964;25.340;2023-04-25T09:03:26;2.83;;;2.20;;
43835;SDS011;39345;43.964;25.340;2023-04-25T09:05:55;3.88;;;2.00;;
43835;SDS011;39345;43.964;25.340;2023-04-25T09:08:23;2.63;;;2.00;;
43835;SDS011;39345;43.964;25.340;2023-04-25T09:10:51;5.35;;;2.10;;
43835;SDS011;39345;43.964;25.340;2023-04-25T09:13:26;4.97;;;1.90;;
43835;SDS011;39345;43.964;25.340;2023-04-25T09:16:14;1.65;;;1.52;;
43835;SDS011;39345;43.964;25.340;2023-04-25T09:19:21;2.50;;;1.70;;
43835;SDS011;39345;43.964;25.340;2023-04-25T09:22:05;5.43;;;2.40;;
43835;SDS011;39345;43.964;25.340;2023-04-25T09:27:05;2.90;;;1.90;;
43835;SDS011;39345;43.964;25.340;2023-04-25T09:29:34;2.00;;;1.50;;
43835;SDS011;39345;43.964;25.340;2023-04-25T09:34:40;5.95;;;1.70;;
43835;SDS011;39345;43.964;25.340;2023-04-25T09:37:11;2.22;;;1.70;;
43835;SDS011;39345;43.964;25.340;2023-04-25T09:39:58;2.40;;;1.70;;
43835;SDS011;39345;43.964;25.340;2023-04-25T09:42:28;3.20;;;1.80;;
43835;SDS011;39345;43.964;25.340;2023-04-25T09:44:58;1.60;;;1.50;;
43835;SDS011;39345;43.964;25.340;2023-04-25T09:47:32;2.88;;;1.70;;
43835;SDS011;39345;43.964;25.340;2023-04-25T09:52:34;2.83;;;1.85;;
43835;SDS011;39345;43.964;25.340;2023-04-25T09:55:12;2.70;;;2.10;;
43835;SDS011;39345;43.964;25.340;2023-04-25T09:57:40;2.35;;;1.75;;
43835;SDS011;39345;43.964;25.340;2023-04-25T10:00:08;2.13;;;1.92;;
43835;SDS011;39345;43.964;25.340;2023-04-25T10:02:44;7.47;;;2.40;;
43835;SDS011;39345;43.964;25.340;2023-04-25T10:05:36;6.00;;;2.00;;
43835;SDS011;39345;43.964;25.340;2023-04-25T10:08:04;2.28;;;2.08;;
43835;SDS011;39345;43.964;25.340;2023-04-25T10:10:32;2.97;;;1.70;;
43835;SDS011;39345;43.964;25.340;2023-04-25T10:13:05;4.55;;;2.10;;
43835;SDS011;39345;43.964;25.340;2023-04-25T10:15:35;2.70;;;1.70;;
43835;SDS011;39345;43.964;25.340;2023-04-25T10:18:06;4.03;;;1.70;;
43835;SDS011;39345;43.964;25.340;2023-04-25T10:20:33;2.90;;;1.73;;
43835;SDS011;39345;43.964;25.340;2023-04-25T10:23:12;1.60;;;1.50;;
43835;SDS011;39345;43.964;25.340;2023-04-25T10:25:40;3.63;;;1.65;;
43835;SDS011;39345;43.964;25.340;2023-04-25T10:28:08;3.15;;;1.70;;
43835;SDS011;39345;43.964;25.340;2023-04-25T10:30:36;4.38;;;2.08;;
43835;SDS011;39345;43.964;25.340;2023-04-25T10:33:12;3.80;;;2.08;;
43835;SDS011;39345;43.964;25.340;2023-04-25T10:35:44;3.90;;;1.60;;
43835;SDS011;39345;43.964;25.340;2023-04-25T10:38:13;4.30;;;2.42;;
43835;SDS011;39345;43.964;25.340;2023-04-25T10:40:41;10.25;;;2.28;;
43835;SDS011;39345;43.964;25.340;2023-04-25T10:45:54;3.55;;;1.90;;
43835;SDS011;39345;43.964;25.340;2023-04-25T10:48:29;6.25;;;2.42;;
43835;SDS011;39345;43.964;25.340;2023-04-25T10:51:09;3.70;;;2.40;;
43835;SDS011;39345;43.964;25.340;2023-04-25T10:53:37;3.25;;;2.30;;
43835;SDS011;39345;43.964;25.340;2023-04-25T10:56:11;3.90;;;2.30;;
43835;SDS011;39345;43.964;25.340;2023-04-25T10:58:43;4.93;;;2.03;;
43835;SDS011;39345;43.964;25.340;2023-04-25T11:01:15;4.75;;;2.10;;
43835;SDS011;39345;43.964;25.340;2023-04-25T11:03:46;3.65;;;2.03;;
43835;SDS011;39345;43.964;25.340;2023-04-25T11:06:23;4.40;;;2.20;;
43835;SDS011;39345;43.964;25.340;2023-04-25T11:08:53;3.58;;;1.80;;
43835;SDS011;39345;43.964;25.340;2023-04-25T11:11:21;4.18;;;1.70;;
43835;SDS011;39345;43.964;25.340;2023-04-25T11:13:49;1.95;;;1.75;;
43835;SDS011;39345;43.964;25.340;2023-04-25T11:16:17;3.10;;;2.15;;
43835;SDS011;39345;43.964;25.340;2023-04-25T11:18:53;4.18;;;1.60;;
43835;SDS011;39345;43.964;25.340;2023-04-25T11:21:21;3.00;;;1.20;;
43835;SDS011;39345;43.964;25.340;2023-04-25T11:23:48;2.50;;;1.50;;
43835;SDS011;39345;43.964;25.340;2023-04-25T11:26:16;4.07;;;1.42;;
43835;SDS011;39345;43.964;25.340;2023-04-25T11:28:46;2.35;;;1.45;;
43835;SDS011;39345;43.964;25.340;2023-04-25T11:31:16;1.40;;;1.30;;
43835;SDS011;39345;43.964;25.340;2023-04-25T11:33:48;2.85;;;1.40;;
43835;SDS011;39345;43.964;25.340;2023-04-25T11:36:15;3.05;;;1.27;;
43835;SDS011;39345;43.964;25.340;2023-04-25T11:38:43;1.83;;;1.10;;
43835;SDS011;39345;43.964;25.340;2023-04-25T11:41:10;3.40;;;1.27;;
43835;SDS011;39345;43.964;25.340;2023-04-25T11:43:38;3.63;;;1.10;;
43835;SDS011;39345;43.964;25.340;2023-04-25T11:46:08;1.85;;;1.70;;
43835;SDS011;39345;43.964;25.340;2023-04-25T11:48:37;2.08;;;1.70;;
43835;SDS011;39345;43.964;25.340;2023-04-25T11:51:05;1.98;;;1.38;;
43835;SDS011;39345;43.964;25.340;2023-04-25T11:53:33;3.47;;;1.63;;
43835;SDS011;39345;43.964;25.340;2023-04-25T11:56:01;3.05;;;1.35;;
43835;SDS011;39345;43.964;25.340;2023-04-25T11:58:28;1.88;;;1.10;;
43835;SDS011;39345;43.964;25.340;2023-04-25T12:00:56;2.35;;;0.95;;
43835;SDS011;39345;43.964;25.340;2023-04-25T12:03:25;1.52;;;1.23;;
43835;SDS011;39345;43.964;25.340;2023-04-25T12:06:02;2.33;;;1.80;;
43835;SDS011;39345;43.964;25.340;2023-04-25T12:08:30;3.00;;;1.50;;
43835;SDS011;39345;43.964;25.340;2023-04-25T12:10:58;3.33;;;1.17;;
43835;SDS011;39345;43.964;25.340;2023-04-25T12:13:26;2.20;;;1.10;;
43835;SDS011;39345;43.964;25.340;2023-04-25T12:15:54;2.17;;;1.13;;
43835;SDS011;39345;43.964;25.340;2023-04-25T12:18:23;4.20;;;1.08;;
43835;SDS011;39345;43.964;25.340;2023-04-25T12:20:54;2.53;;;1.27;;
43835;SDS011;39345;43.964;25.340;2023-04-25T12:23:29;1.65;;;0.88;;
43835;SDS011;39345;43.964;25.340;2023-04-25T12:25:57;2.47;;;1.17;;
43835;SDS011;39345;43.964;25.340;2023-04-25T12:28:24;3.03;;;1.33;;
43835;SDS011;39345;43.964;25.340;2023-04-25T12:33:25;2.03;;;1.40;;
43835;SDS011;39345;43.964;25.340;2023-04-25T12:35:53;5.10;;;1.27;;
43835;SDS011;39345;43.964;25.340;2023-04-25T12:38:21;3.55;;;1.23;;
43835;SDS011;39345;43.964;25.340;2023-04-25T12:40:49;3.25;;;1.10;;
43835;SDS011;39345;43.964;25.340;2023-04-25T12:43:16;2.83;;;1.48;;
43835;SDS011;39345;43.964;25.340;2023-04-25T12:45:44;2.08;;;1.27;;
43835;SDS011;39345;43.964;25.340;2023-04-25T12:48:12;1.67;;;1.10;;
43835;SDS011;39345;43.964;25.340;2023-04-25T12:50:39;1.45;;;1.10;;
43835;SDS011;39345;43.964;25.340;2023-04-25T12:53:07;1.23;;;1.10;;
43835;SDS011;39345;43.964;25.340;2023-04-25T12:55:35;1.23;;;1.13;;
43835;SDS011;39345;43.964;25.340;2023-04-25T12:58:02;1.30;;;1.17;;
43835;SDS011;39345;43.964;25.340;2023-04-25T13:00:30;3.30;;;1.10;;
43835;SDS011;39345;43.964;25.340;2023-04-25T13:02:58;3.45;;;1.33;;
43835;SDS011;39345;43.964;25.340;2023-04-25T13:05:26;1.65;;;1.38;;
43835;SDS011;39345;43.964;25.340;2023-04-25T13:07:53;2.40;;;1.25;;
43835;SDS011;39345;43.964;25.340;2023-04-25T13:10:21;1.52;;;1.30;;
43835;SDS011;39345;43.964;25.340;2023-04-25T13:12:49;2.25;;;1.40;;
43835;SDS011;39345;43.964;25.340;2023-04-25T13:15:16;4.65;;;1.33;;
43835;SDS011;39345;43.964;25.340;2023-04-25T13:17:44;4.90;;;1.40;;
43835;SDS011;39345;43.964;25.340;2023-04-25T13:20:12;2.70;;;1.30;;
43835;SDS011;39345;43.964;25.340;2023-04-25T13:22:41;2.65;;;1.30;;
43835;SDS011;39345;43.964;25.340;2023-04-25T13:25:09;1.63;;;1.20;;
43835;SDS011;39345;43.964;25.340;2023-04-25T13:27:37;1.33;;;0.98;;
43835;SDS011;39345;43.964;25.340;2023-04-25T13:30:06;1.88;;;0.90;;
43835;SDS011;39345;43.964;25.340;2023-04-25T13:32:34;2.33;;;0.88;;
43835;SDS011;39345;43.964;25.340;2023-04-25T13:35:03;1.60;;;1.20;;
43835;SDS011;39345;43.964;25.340;2023-04-25T13:37:34;8.25;;;2.00;;
43835;SDS011;39345;43.964;25.340;2023-04-25T13:40:02;10.43;;;2.13;;
43835;SDS011;39345;43.964;25.340;2023-04-25T13:42:31;4.32;;;1.80;;
43835;SDS011;39345;43.964;25.340;2023-04-25T13:44:59;4.72;;;1.63;;
43835;SDS011;39345;43.964;25.340;2023-04-25T13:47:26;3.65;;;1.40;;
43835;SDS011;39345;43.964;25.340;2023-04-25T13:49:54;4.63;;;1.55;;
43835;SDS011;39345;43.964;25.340;2023-04-25T13:52:22;3.08;;;1.38;;
43835;SDS011;39345;43.964;25.340;2023-04-25T13:54:52;7.10;;;1.90;;
43835;SDS011;39345;43.964;25.340;2023-04-25T13:57:19;2.25;;;1.60;;
43835;SDS011;39345;43.964;25.340;2023-04-25T13:59:47;1.95;;;1.70;;
43835;SDS011;39345;43.964;25.340;2023-04-25T14:02:14;1.70;;;1.60;;
43835;SDS011;39345;43.964;25.340;2023-04-25T14:04:42;4.18;;;1.70;;
43835;SDS011;39345;43.964;25.340;2023-04-25T14:07:10;5.97;;;2.00;;
43835;SDS011;39345;43.964;25.340;2023-04-25T14:09:37;3.88;;;1.95;;
43835;SDS011;39345;43.964;25.340;2023-04-25T14:12:05;2.90;;;1.90;;
43835;SDS011;39345;43.964;25.340;2023-04-25T14:14:32;4.18;;;2.00;;
43835;SDS011;39345;43.964;25.340;2023-04-25T14:17:00;4.90;;;2.50;;
43835;SDS011;39345;43.964;25.340;2023-04-25T14:19:27;4.82;;;2.10;;
43835;SDS011;39345;43.964;25.340;2023-04-25T14:21:55;2.70;;;2.38;;
43835;SDS011;39345;43.964;25.340;2023-04-25T14:24:23;3.38;;;2.13;;
43835;SDS011;39345;43.964;25.340;2023-04-25T14:26:51;4.53;;;2.00;;
43835;SDS011;39345;43.964;25.340;2023-04-25T14:29:19;2.70;;;2.42;;
43835;SDS011;39345;43.964;25.340;2023-04-25T14:31:46;3.65;;;2.55;;
43835;SDS011;39345;43.964;25.340;2023-04-25T14:34:14;5.60;;;3.40;;
43835;SDS011;39345;43.964;25.340;2023-04-25T14:36:41;3.78;;;2.42;;
43835;SDS011;39345;43.964;25.340;2023-04-25T14:39:09;4.15;;;2.25;;
43835;SDS011;39345;43.964;25.340;2023-04-25T14:41:36;4.63;;;2.35;;
43835;SDS011;39345;43.964;25.340;2023-04-25T14:44:04;3.75;;;2.42;;
43835;SDS011;39345;43.964;25.340;2023-04-25T14:46:31;2.97;;;2.25;;
43835;SDS011;39345;43.964;25.340;2023-04-25T14:48:59;2.92;;;2.20;;
43835;SDS011;39345;43.964;25.340;2023-04-25T14:51:27;3.20;;;2.17;;
43835;SDS011;39345;43.964;25.340;2023-04-25T14:53:55;2.13;;;1.92;;
43835;SDS011;39345;43.964;25.340;2023-04-25T14:56:22;2.40;;;1.92;;
43835;SDS011;39345;43.964;25.340;2023-04-25T14:58:50;4.00;;;3.10;;
43835;SDS011;39345;43.964;25.340;2023-04-25T15:01:17;4.78;;;2.15;;
43835;SDS011;39345;43.964;25.340;2023-04-25T15:03:47;2.47;;;2.17;;